Chandler, MN

9:15 AM CDT on October 23, 2017 (GMT -0500)
Chandler | | Change Station

Elev 1424 ft 45.87 °N, 95.39 °W | Updated 22 minutes ago

Scattered Clouds
Scattered Clouds
51 °F
Feels Like 51 °F
N
23
Wind Variable Wind from WNW
Gusts 34 mph

Today
High -- | Low -- °F
--% Chance of Precip.
Yesterday
High -- | Low -- °F
Precip. -- in
Pressure 29.81 in
Visibility 10.0 miles
Clouds Scattered Clouds 9000 ft
Dew Point 37 °F
Humidity 59%
Rainfall 0.00 in
Snow Depth Not available.
7:49 AM 6:21 PM
Waxing Crescent, 13% visible
METAR KAXN 231353Z AUTO 30020G30KT 10SM SCT090 11/03 A2979 RMK AO2 PK WND 30030/1346 SLP093 T01060028
Pressure 29.81 in
Visibility 10.0 miles
Clouds Scattered Clouds 9000 ft
Dew Point 37 °F
Humidity 59%
Rainfall 0.00 in
Snow Depth Not available.
7:49 AM 6:21 PM
Waxing Crescent, 13% visible
METAR KAXN 231353Z AUTO 30020G30KT 10SM SCT090 11/03 A2979 RMK AO2 PK WND 30030/1346 SLP093 T01060028

Get Severe Weather Alerts

Thanks for signing up!

Be on the lookout for a verification email in your inbox.

You'll start receiving the daily forecast at 6 AM.

×

10-Day Weather Forecast

Almanac

Astronomy

Oct. 23, 2017 Rise Set
Actual Time
Civil Twilight
Nautical Twilight
Astronomical Twilight
Moon
Length of Visible Light
Length of Day
Tomorrow will be .
, % of the Moon is Illuminated

Today's Extremes

State Highs State Lows

Community

WunderPhotos

Category 6

Welcome to Category 6. This is the collective home for Weather Underground's featured writeups by Dr. Jeff Masters (right), Bob Henson (left), Chris Burt, and other regular contributors.

Nearby

Air Quality

  Air Quality AQ Index Pollutant
Not available.

Snow Depth

Station Depth Elevation

Earthquake Activity

City Distance Mag. Time & Date
Minimum magnitude displayed is 2.5.

Coastal Water Temperatures

Place Temperature

Stations

Nearby Weather Stations

Station Location Temp. Windchill Dew Point Humidity Wind Precip. Elev Updated Type
                   

Watches & Warnings

There are currently no watches in effect.